Ash Grove, Missouri
Current Conditions -  °F | °C
As of 11:17 AM on Friday 31 Oct 2014 (Local Time) from KSGF Reporting Station
Scattered Clouds Scattered Clouds  
Wind Chill: 37°   Ceiling: Unl
Heat Index: 45°   Visibility: 10mi
Dew Point: 30°   Wind: 22mph
Humidity: 56%   Direction: 350°N
Pressure: 30.35"   Gusts: NA
Location:  37.32°N, 93.59°W
Report Text: KSGF 311617Z 35019KT 10SM SCT028 07/M01 A3035 RMK AO2 PK WND 35026/1558 T00721011
Loading
Personal Weather Stations






























Interactive Weather Map
Tropical Storm Tracking
New forecast layout! Learn more

10-Day Weather Forecast

Advertisements
Track Severe Weather on mobile